Kamiah, ID (83536)

9:10 AM PST on December 18, 2014 (GMT -0800)
Ash Street Kamiah | Change Station
CLOSE
Current Station
Personal Weather Station
Location: Kamiah, ID
Elevation: 1224 ft
Nearby Weather Stations

Elev 1224 ft 46.22 °N, 116.03 °W | Updated 14 seconds ago

Overcast
Overcast
37.6 °F
Feels Like 38 °F
N
0.0
Wind Variable Wind from NE
Gusts 0.0 mph

Today
High -- | Low -- °F
--% Chance of Precip.
Yesterday
High -- | Low -- °F
Precip. -- in
7:22 AM 3:59 PM
Waning Crescent, 13% visible
Pressure 30.06 in
Visibility 7.0 miles
Clouds Overcast 7500 ft
Windchill 38 °F
Dew Point 35 °F
Humidity 90%
Rainfall 0.02 in
Snow Depth Not available.
UV 0 out of 12
Pollen .10 out of 12
Air Quality Not available.
Flu Activity Not available.
METAR KLWS 181656Z 00000KT 7SM OVC075 04/03 A3003 RMK AO2 SLP180 T00390028

More Conditions Fewer Conditions

Pressure 30.06 in
Visibility 7.0 miles
Clouds Overcast 7500 ft
Windchill 38 °F
Dew Point 35 °F
Humidity 90%
Rainfall 0.02 in
Snow Depth Not available.
UV 0 out of 12
Pollen .10 out of 12
Air Quality Not available.
Flu Activity Not available.
METAR KLWS 181656Z 00000KT 7SM OVC075 04/03 A3003 RMK AO2 SLP180 T00390028

More Conditions Fewer Conditions

10-Day Weather Forecast

Almanac

Astronomy

Dec. 18, 2014 Rise Set
Actual Time
Civil Twilight
Nautical Twilight
Astronomical Twilight
Moon
Length of Visible Light
Length of Day
Tomorrow will be .
, % of the Moon is Illuminated

Today's Extremes

State Highs State Lows

Community

WunderPhotos

Upload Photos

1,778,964 photos uploaded!

WunderBlogs® & News

Nearby

Air Quality

  Air Quality AQ Index Pollutant
Not available.

Snow Depth

Station Depth Elevation

Earthquake Activity

City Distance Mag. Time & Date
Minimum magnitude displayed is 2.5.

Coastal Water Temperatures

Place Temperature

Nearby Weather Stations